首页
METAR-TAF:

METAR-TAF

机场 :

Newquay Cornwall, 英格兰

纬度: 50-26N, 经度: 005-00W, 海拔: 119米

当前天气观测

该预报发布于39分钟前的18:50 UTC
风速19节,风向西
温度 8°C
湿度 81%
气压 1020 hPa
能见度10公里或以上
多云层高于4800英尺

METAR: EGHQ 181850Z 26019KT 9999 BKN048 08/05 Q1020

时间: 19:29 (19:29 UTC)

预报

该预报发布于2小时和40分钟前的16:49 UTC
预报有效从18日的 18点(UTC)到 19日的 03点(UTC)
风速16节,风向西
能见度10公里或以上
少量云层高于1000英尺
散云层高于2500英尺
短暂存在
从 18日的 18点(UTC)到 18日的 23点(UTC)
风速20节,风向西,有时为32节阵风
能見度: 6000
阵雨
几率 40% :
短暂存在
从 18日的 18点(UTC)到 18日的 19点(UTC)
能見度: 3000
多云层高于800英尺
多云层高于2000英尺, 积雨云.
大阵雨, 小冰雹或雪球

TAF: EGHQ 181649Z 1818/1903 26016KT 9999 FEW010 SCT025 TEMPO 1818/1823 26020G32KT 6000 SHRA PROB40 TEMPO 1818/1819 3000 +SHRAGS BKN008 BKN020CB

超过4000个机场的气象观测和天气预报(METAR&TAF报告)。

可查询的气象台以黄色和红色小点在地图上表示。

将鼠标移到小点上方,可查看气象台名称。

然后点击查看天气观测和预报。

如需切换地图:点击带黑十字的绿色按钮放大地图;点击带横线的绿色按钮缩小地图;或者点击绿色箭头查看邻近地区的地图。


METAR-TAF: